Time;durP1;ratioP1;P1;durP2;ratioP2;P2;SDS_P1;SDS_P2;PMS_P1;PMS_P2;Temp;Humidity;BMP_temperature;BMP_pressure;BME280_temperature;BME280_humidity;BME280_pressure;Samples;Min_cycle;Max_cycle;Signal;HPM_P1;HPM_P2
2022/06/23 00:01:44;;;;;;;0.10;0.10;;;;;;;14.32;77.04;100183.94;5050958;28;20182;-72
2022/06/23 00:04:20;;;;;;;0.00;0.00;;;;;;;14.24;77.27;100188.41;5050617;28;20671;-71
2022/06/23 00:06:54;;;;;;;0.00;0.00;;;;;;;14.22;77.41;100188.75;5050316;28;20256;-73
2022/06/23 00:09:37;;;;;;;0.00;0.00;;;;;;;14.16;77.86;100189.31;5032379;28;20221;-73
2022/06/23 00:12:17;;;;;;;0.00;0.00;;;;;;;14.14;78.09;100188.84;5051054;28;20167;-73
2022/06/23 00:14:43;;;;;;;0.00;0.00;;;;;;;14.10;78.74;100191.50;5049246;28;20258;-72
2022/06/23 00:17:36;;;;;;;0.00;0.00;;;;;;;14.06;78.97;100193.31;5050116;28;20250;-72
2022/06/23 00:20:11;;;;;;;0.00;0.00;;;;;;;14.06;79.71;100187.03;5050798;28;20179;-73
2022/06/23 00:22:40;;;;;;;0.33;0.33;;;;;;;14.03;79.44;100196.72;5050569;28;20625;-72
2022/06/23 00:25:07;;;;;;;0.30;0.30;;;;;;;13.97;79.65;100190.66;5050554;28;20202;-72
2022/06/23 00:27:38;;;;;;;0.00;0.00;;;;;;;13.93;80.42;100195.25;5050220;28;20179;-72
2022/06/23 00:30:18;;;;;;;0.10;0.10;;;;;;;13.89;80.36;100191.56;5050451;28;20171;-73
2022/06/23 00:32:44;;;;;;;0.00;0.00;;;;;;;13.89;80.91;100188.81;5050270;28;20550;-72
2022/06/23 00:35:16;;;;;;;0.00;0.00;;;;;;;13.88;81.19;100195.44;5050306;28;20186;-72
2022/06/23 00:37:51;;;;;;;0.07;0.07;;;;;;;13.87;81.35;100191.09;5049740;28;20178;-73
2022/06/23 00:40:23;;;;;;;0.10;0.10;;;;;;;13.89;81.35;100188.03;5050124;28;20231;-72
2022/06/23 00:42:54;;;;;;;0.00;0.00;;;;;;;13.92;80.72;100182.66;5050221;28;20924;-73
2022/06/23 00:45:30;;;;;;;0.00;0.00;;;;;;;13.98;80.80;100180.47;5050556;28;20530;-72
2022/06/23 00:48:18;;;;;;;0.00;0.00;;;;;;;13.98;80.57;100183.22;5049386;28;20182;-73
2022/06/23 00:51:07;;;;;;;0.17;0.17;;;;;;;13.89;80.66;100182.53;5050257;28;20175;-72
2022/06/23 00:53:43;;;;;;;0.00;0.00;;;;;;;13.78;80.98;100189.59;5050154;28;20179;-72
2022/06/23 00:56:26;;;;;;;0.00;0.00;;;;;;;13.76;81.67;100187.19;5050179;28;20175;-72
2022/06/23 00:59:12;;;;;;;0.77;0.77;;;;;;;13.76;81.91;100192.69;5049536;28;20523;-73
2022/06/23 01:01:44;;;;;;;0.00;0.00;;;;;;;13.75;81.80;100196.56;5050058;28;20182;-72
2022/06/23 01:04:25;;;;;;;0.00;0.00;;;;;;;13.78;82.15;100198.63;5049853;28;20215;-74
2022/06/23 01:06:51;;;;;;;0.00;0.00;;;;;;;13.76;82.00;100189.94;5049757;28;20232;-72
2022/06/23 01:09:45;;;;;;;0.00;0.00;;;;;;;13.79;82.62;100197.50;5049538;28;20167;-73
2022/06/23 01:12:27;;;;;;;0.00;0.00;;;;;;;13.83;82.38;100200.34;5033289;28;20651;-73
2022/06/23 01:15:02;;;;;;;2.70;0.43;;;;;;;13.82;82.33;100204.25;5049095;28;20171;-72
2022/06/23 01:17:40;;;;;;;0.00;0.00;;;;;;;13.76;82.39;100200.91;5049655;28;20567;-74
2022/06/23 01:20:14;;;;;;;0.00;0.00;;;;;;;13.72;82.84;100197.22;5050031;28;20179;-72
2022/06/23 01:22:49;;;;;;;0.20;0.20;;;;;;;13.70;83.25;100197.56;5049801;28;20198;-72
2022/06/23 01:25:20;;;;;;;0.00;0.00;;;;;;;13.64;82.98;100196.19;5050211;28;20162;-73
2022/06/23 01:28:09;;;;;;;0.00;0.00;;;;;;;13.64;84.10;100198.94;5049128;28;20209;-74
2022/06/23 01:31:06;;;;;;;0.00;0.00;;;;;;;13.57;84.58;100200.59;5049767;28;20183;-72
2022/06/23 01:33:49;;;;;;;0.00;0.00;;;;;;;13.59;85.16;100201.88;5038911;28;20639;-72
2022/06/23 01:36:32;;;;;;;4.43;3.60;;;;;;;13.52;85.30;100201.63;5049854;28;20175;-74
2022/06/23 01:39:04;;;;;;;0.00;0.00;;;;;;;13.51;85.49;100194.53;5049410;28;20190;-72
2022/06/23 01:41:33;;;;;;;0.00;0.00;;;;;;;13.53;86.00;100195.00;5049606;28;20184;-72
2022/06/23 01:44:05;;;;;;;0.00;0.00;;;;;;;13.58;86.23;100197.50;5049648;28;20207;-72
2022/06/23 01:46:39;;;;;;;3.03;2.63;;;;;;;13.49;85.74;100201.50;5049266;28;20199;-72
2022/06/23 01:49:43;;;;;;;0.00;0.00;;;;;;;13.38;86.17;100195.63;5049215;28;20541;-73
2022/06/23 01:52:11;;;;;;;0.00;0.00;;;;;;;13.38;87.04;100199.16;5005253;28;20218;-73
2022/06/23 01:54:39;;;;;;;0.00;0.00;;;;;;;13.37;86.89;100196.75;5053129;28;20538;-73
2022/06/23 01:57:22;;;;;;;0.00;0.00;;;;;;;13.42;87.21;100193.78;5053047;28;20182;-74
2022/06/23 01:59:57;;;;;;;0.00;0.00;;;;;;;13.39;86.94;100197.22;5052791;28;20568;-73
2022/06/23 02:02:28;;;;;;;0.00;0.00;;;;;;;13.40;86.97;100198.81;5053393;28;20178;-72
2022/06/23 02:05:25;;;;;;;0.00;0.00;;;;;;;13.42;86.78;100199.28;5052860;28;20519;-73
2022/06/23 02:07:59;;;;;;;0.00;0.00;;;;;;;13.46;86.84;100192.00;5007932;28;20213;-72
2022/06/23 02:10:39;;;;;;;0.00;0.00;;;;;;;13.47;86.56;100196.34;5053004;28;20171;-73
2022/06/23 02:13:23;;;;;;;0.00;0.00;;;;;;;13.37;86.25;100196.75;5051612;28;20212;-73
2022/06/23 02:16:01;;;;;;;0.00;0.00;;;;;;;13.35;85.77;100207.25;5052694;28;20525;-72
2022/06/23 02:18:26;;;;;;;0.00;0.00;;;;;;;13.47;86.38;100203.78;5052093;28;20531;-73
2022/06/23 02:20:58;;;;;;;0.00;0.00;;;;;;;13.50;86.29;100203.91;5052708;28;20171;-72
2022/06/23 02:23:32;;;;;;;0.00;0.00;;;;;;;13.58;86.01;100203.00;5052555;28;20485;-72
2022/06/23 02:26:20;;;;;;;0.00;0.00;;;;;;;13.60;85.99;100202.69;5052770;28;20539;-73
2022/06/23 02:29:24;;;;;;;0.00;0.00;;;;;;;13.68;86.31;100201.78;5051684;28;20207;-73
2022/06/23 02:32:01;;;;;;;0.00;0.00;;;;;;;13.77;85.73;100199.78;5051667;28;20191;-74
2022/06/23 02:34:41;;;;;;;0.00;0.00;;;;;;;13.85;85.42;100203.56;5052606;28;20182;-73
2022/06/23 02:37:44;;;;;;;0.00;0.00;;;;;;;13.84;85.17;100208.25;5052102;28;20202;-73
2022/06/23 02:40:17;;;;;;;0.00;0.00;;;;;;;13.71;84.68;100203.84;5052796;28;20171;-73
2022/06/23 02:42:47;;;;;;;0.00;0.00;;;;;;;13.60;85.12;100206.25;5052243;28;20199;-74
2022/06/23 02:45:51;;;;;;;0.00;0.00;;;;;;;13.59;84.65;100207.34;5052233;28;20527;-73
2022/06/23 02:48:35;;;;;;;0.00;0.00;;;;;;;13.66;84.42;100199.38;5010233;28;20207;-73
2022/06/23 02:51:25;;;;;;;0.00;0.00;;;;;;;13.80;83.92;100207.31;5052346;28;20623;-73
2022/06/23 02:54:12;;;;;;;0.00;0.00;;;;;;;13.75;84.04;100207.56;5052083;28;20198;-73
2022/06/23 02:56:38;;;;;;;0.00;0.00;;;;;;;13.68;83.19;100205.34;5051647;28;20225;-73
2022/06/23 02:59:13;;;;;;;0.00;0.00;;;;;;;13.64;83.66;100204.41;5051845;28;20539;-75
2022/06/23 03:02:01;;;;;;;0.00;0.00;;;;;;;13.65;83.01;100200.53;5052232;28;20183;-75
2022/06/23 03:04:29;;;;;;;0.00;0.00;;;;;;;13.63;83.13;100197.31;5050767;28;20414;-74
2022/06/23 03:07:06;;;;;;;0.00;0.00;;;;;;;13.51;83.22;100199.22;5033634;28;20537;-74
2022/06/23 03:09:42;;;;;;;0.00;0.00;;;;;;;13.74;82.82;100200.44;5051952;28;20278;-73
2022/06/23 03:12:13;;;;;;;0.00;0.00;;;;;;;13.89;82.31;100199.00;5051710;28;20167;-73
2022/06/23 03:14:42;;;;;;;0.00;0.00;;;;;;;13.97;81.99;100196.16;5050447;28;20681;-73
2022/06/23 03:17:40;;;;;;;0.00;0.00;;;;;;;14.05;81.54;100199.16;5051199;28;20171;-72
2022/06/23 03:20:10;;;;;;;0.00;0.00;;;;;;;14.06;81.66;100200.75;5035924;28;20195;-74
2022/06/23 03:22:50;;;;;;;0.00;0.00;;;;;;;14.10;81.68;100205.22;5051286;28;20833;-72
2022/06/23 03:25:15;;;;;;;0.00;0.00;;;;;;;14.17;80.92;100204.66;5051352;28;20175;-73
2022/06/23 03:28:00;;;;;;;0.00;0.00;;;;;;;14.15;80.77;100207.75;5050551;28;20225;-72
2022/06/23 03:30:46;;;;;;;0.00;0.00;;;;;;;14.17;80.21;100202.69;5051300;28;20646;-73
2022/06/23 03:33:30;;;;;;;0.00;0.00;;;;;;;13.94;80.64;100223.50;5051605;28;20186;-73
2022/06/23 03:36:18;;;;;;;0.00;0.00;;;;;;;13.69;82.23;100217.94;5051004;28;20240;-73
2022/06/23 03:41:42;;;;;;;0.00;0.00;;;;;;;13.40;84.77;100223.50;5051350;28;20236;-73
2022/06/23 03:44:30;;;;;;;0.10;0.10;;;;;;;13.26;86.12;100223.78;5050980;28;20203;-73
2022/06/23 03:47:04;;;;;;;3.53;1.67;;;;;;;13.27;86.72;100225.38;5050656;28;20187;-73
2022/06/23 03:49:39;;;;;;;0.00;0.00;;;;;;;13.35;88.30;100230.03;5050599;28;20503;-73
2022/06/23 03:52:15;;;;;;;0.00;0.00;;;;;;;13.41;88.32;100233.34;5050996;28;20205;-72
2022/06/23 03:54:57;;;;;;;0.00;0.00;;;;;;;13.53;88.46;100241.66;5050876;28;20171;-73
2022/06/23 03:57:37;;;;;;;0.00;0.00;;;;;;;13.62;88.27;100230.59;5050605;28;20419;-73
2022/06/23 04:00:18;;;;;;;0.00;0.00;;;;;;;13.75;87.49;100247.94;5050847;28;20210;-74
2022/06/23 04:02:48;;;;;;;0.00;0.00;;;;;;;13.86;86.66;100247.16;5050772;28;20203;-72
2022/06/23 04:05:23;;;;;;;0.00;0.00;;;;;;;13.92;86.29;100240.31;5050602;28;20179;-74
2022/06/23 04:08:02;;;;;;;0.00;0.00;;;;;;;13.65;86.07;100244.47;5050147;28;20221;-74
2022/06/23 04:10:32;;;;;;;0.00;0.00;;;;;;;13.45;86.93;100239.78;5050724;28;20175;-74
2022/06/23 04:13:05;;;;;;;0.00;0.00;;;;;;;13.50;87.55;100244.28;5049947;28;20195;-74
2022/06/23 04:15:36;;;;;;;0.00;0.00;;;;;;;13.51;86.72;100248.63;5050228;28;20175;-72
2022/06/23 04:18:05;;;;;;;0.00;0.00;;;;;;;13.53;86.97;100247.13;5050008;28;20167;-73
2022/06/23 04:20:53;;;;;;;0.00;0.00;;;;;;;13.70;86.15;100252.47;5050496;28;20304;-74
2022/06/23 04:23:29;;;;;;;0.00;0.00;;;;;;;13.80;86.08;100247.72;5050366;28;20207;-75
2022/06/23 04:26:14;;;;;;;0.00;0.00;;;;;;;13.93;85.54;100250.16;5050591;28;20182;-74
2022/06/23 04:28:45;;;;;;;0.00;0.00;;;;;;;13.90;84.73;100256.34;5049753;28;20262;-73
2022/06/23 04:31:18;;;;;;;0.00;0.00;;;;;;;13.89;85.65;100252.00;5050355;28;20178;-74
2022/06/23 04:33:46;;;;;;;0.00;0.00;;;;;;;13.92;85.57;100259.56;5050566;28;20191;-74
2022/06/23 04:36:20;;;;;;;0.00;0.00;;;;;;;13.99;85.31;100262.53;5050222;28;20176;-75
2022/06/23 04:39:00;;;;;;;0.00;0.00;;;;;;;14.13;85.16;100270.47;5049748;28;20181;-72
2022/06/23 04:41:36;;;;;;;0.00;0.00;;;;;;;14.15;84.42;100273.69;5050252;28;20692;-73
2022/06/23 04:44:11;;;;;;;0.00;0.00;;;;;;;14.24;85.34;100270.84;5050240;28;20269;-73
2022/06/23 04:46:41;;;;;;;0.00;0.00;;;;;;;14.30;84.76;100272.22;5050003;28;20182;-72
2022/06/23 04:49:28;;;;;;;0.00;0.00;;;;;;;14.42;84.08;100274.22;5049847;28;20179;-74
2022/06/23 04:52:00;;;;;;;0.00;0.00;;;;;;;14.46;83.47;100275.16;5050028;28;20701;-73
2022/06/23 04:54:32;;;;;;;0.00;0.00;;;;;;;14.57;83.86;100277.13;5050420;28;20536;-74
2022/06/23 04:57:21;;;;;;;0.00;0.00;;;;;;;14.71;84.42;100279.53;5049780;28;20172;-74
2022/06/23 04:59:53;;;;;;;0.00;0.00;;;;;;;14.91;85.22;100275.09;5049686;28;20630;-73
2022/06/23 05:02:34;;;;;;;0.00;0.00;;;;;;;14.99;84.53;100285.16;5049975;28;20245;-73
2022/06/23 05:05:12;;;;;;;0.00;0.00;;;;;;;15.15;84.23;100285.25;5049887;28;20171;-73
2022/06/23 05:07:50;;;;;;;0.00;0.00;;;;;;;15.29;81.66;100282.94;5049439;28;20409;-74
2022/06/23 05:10:23;;;;;;;0.00;0.00;;;;;;;15.36;79.58;100282.38;5050038;28;20225;-72
2022/06/23 05:12:53;;;;;;;0.00;0.00;;;;;;;15.47;79.42;100278.75;5049887;28;20639;-75
2022/06/23 05:15:26;;;;;;;0.10;0.10;;;;;;;15.63;79.36;100273.38;5049122;28;20214;-73
2022/06/23 05:17:58;;;;;;;0.00;0.00;;;;;;;15.46;76.93;100279.13;5049194;28;20186;-73
2022/06/23 05:20:27;;;;;;;0.07;0.07;;;;;;;15.51;77.59;100281.63;5049905;28;20627;-75
2022/06/23 05:22:52;;;;;;;0.00;0.00;;;;;;;15.54;78.20;100277.38;5049850;28;20206;-72
2022/06/23 05:25:36;;;;;;;0.00;0.00;;;;;;;15.71;79.65;100280.69;5049696;28;20959;-74
2022/06/23 05:28:07;;;;;;;0.00;0.00;;;;;;;15.76;80.71;100279.63;5050885;28;20216;-74
2022/06/23 05:30:39;;;;;;;0.60;0.60;;;;;;;15.91;80.51;100284.41;5053704;28;20179;-74
2022/06/23 05:33:07;;;;;;;0.00;0.00;;;;;;;15.90;77.74;100284.72;5053837;28;20175;-72
2022/06/23 05:35:42;;;;;;;0.00;0.00;;;;;;;16.02;78.00;100282.72;5053421;28;20178;-74
2022/06/23 05:38:16;;;;;;;0.13;0.13;;;;;;;15.98;77.31;100278.28;5052872;28;20399;-74
2022/06/23 05:41:02;;;;;;;0.00;0.00;;;;;;;16.12;77.39;100289.69;5053281;28;20642;-74
2022/06/23 05:43:30;;;;;;;0.10;0.10;;;;;;;16.16;77.19;100279.56;5053285;28;20586;-73
2022/06/23 05:45:59;;;;;;;0.00;0.00;;;;;;;16.34;78.01;100289.09;5053516;28;20175;-74
2022/06/23 05:48:30;;;;;;;0.20;0.20;;;;;;;16.48;76.69;100296.13;5052457;28;20598;-75
2022/06/23 05:51:04;;;;;;;0.00;0.00;;;;;;;16.58;76.43;100285.38;5053362;28;20278;-75
2022/06/23 05:53:38;;;;;;;0.03;0.03;;;;;;;16.56;75.13;100284.16;5053236;28;20177;-73
2022/06/23 05:56:32;;;;;;;0.00;0.00;;;;;;;16.64;75.48;100283.97;5053159;28;20202;-73
2022/06/23 05:59:03;;;;;;;0.00;0.00;;;;;;;16.75;75.52;100291.72;5052380;28;20238;-73
2022/06/23 06:01:37;;;;;;;0.00;0.00;;;;;;;16.83;75.08;100297.09;5053150;28;20179;-73
2022/06/23 06:04:10;;;;;;;0.00;0.00;;;;;;;16.94;74.28;100287.09;5053055;28;20677;-73
2022/06/23 06:06:37;;;;;;;0.00;0.00;;;;;;;16.88;73.30;100296.00;5052896;28;20221;-74
2022/06/23 06:11:52;;;;;;;0.00;0.00;;;;;;;16.96;73.51;100303.31;5053118;28;20237;-74
2022/06/23 06:14:22;;;;;;;0.00;0.00;;;;;;;17.07;74.32;100298.84;5052030;28;20241;-74
2022/06/23 06:16:47;;;;;;;0.00;0.00;;;;;;;17.21;74.32;100299.19;5052561;28;20175;-73
2022/06/23 06:19:16;;;;;;;0.00;0.00;;;;;;;17.43;74.50;100299.66;5052395;28;20171;-74
2022/06/23 06:21:42;;;;;;;0.40;0.40;;;;;;;17.59;73.58;100300.38;5052727;28;20229;-72
2022/06/23 06:24:21;;;;;;;0.23;0.13;;;;;;;17.72;71.85;100301.88;5052485;28;20659;-74
2022/06/23 06:26:51;;;;;;;0.00;0.00;;;;;;;17.79;71.30;100304.81;5052724;28;20171;-72
2022/06/23 06:29:26;;;;;;;0.00;0.00;;;;;;;17.89;71.61;100299.84;5052141;28;20171;-73
2022/06/23 06:32:10;;;;;;;0.00;0.00;;;;;;;17.83;72.36;100293.81;5052516;28;20184;-73
2022/06/23 06:34:41;;;;;;;0.00;0.00;;;;;;;17.88;72.37;100293.53;5052446;28;20218;-73
2022/06/23 06:37:11;;;;;;;0.33;0.33;;;;;;;18.05;72.96;100295.84;5034207;28;20233;-74
2022/06/23 06:39:40;;;;;;;0.00;0.00;;;;;;;18.14;73.43;100293.66;5051673;28;20627;-74
2022/06/23 06:42:09;;;;;;;0.30;0.30;;;;;;;18.27;73.26;100291.53;5052190;28;20183;-73
2022/06/23 06:44:40;;;;;;;0.13;0.13;;;;;;;18.47;73.34;100291.47;5052186;28;20207;-74
2022/06/23 06:47:07;;;;;;;0.03;0.03;;;;;;;18.54;73.67;100299.91;5051910;28;20187;-73
2022/06/23 06:49:33;;;;;;;0.63;0.63;;;;;;;18.63;72.90;100295.72;5051746;28;20658;-72
2022/06/23 06:51:59;;;;;;;0.00;0.00;;;;;;;18.60;72.77;100301.19;5052235;28;20186;-75
2022/06/23 06:54:27;;;;;;;0.00;0.00;;;;;;;18.74;73.06;100307.00;5052082;28;20221;-75
2022/06/23 06:56:59;;;;;;;0.77;0.13;;;;;;;18.84;72.44;100316.66;5051619;28;20214;-73
2022/06/23 06:59:37;;;;;;;0.00;0.00;;;;;;;19.02;72.04;100313.00;5051625;28;20250;-75
2022/06/23 07:02:21;;;;;;;0.00;0.00;;;;;;;19.05;71.33;100316.19;5051944;28;20566;-74
2022/06/23 07:04:56;;;;;;;0.00;0.00;;;;;;;18.93;72.22;100322.72;5051813;28;20546;-74
2022/06/23 07:07:27;;;;;;;0.00;0.00;;;;;;;19.13;72.82;100315.13;5051550;28;20183;-75
2022/06/23 07:10:04;;;;;;;0.77;0.77;;;;;;;19.45;71.91;100318.38;5051535;28;20185;-75
2022/06/23 07:12:54;;;;;;;0.10;0.10;;;;;;;19.51;71.61;100314.91;5051826;28;20181;-73
2022/06/23 07:15:41;;;;;;;0.10;0.10;;;;;;;19.44;70.42;100316.78;5041711;28;20215;-72
2022/06/23 07:18:17;;;;;;;0.00;0.00;;;;;;;19.63;71.61;100307.56;5051053;28;20263;-74
2022/06/23 07:20:52;;;;;;;0.00;0.00;;;;;;;19.64;70.19;100309.94;5051620;28;20238;-75
2022/06/23 07:23:27;;;;;;;0.20;0.20;;;;;;;19.76;71.57;100304.19;5051552;28;20208;-75
2022/06/23 07:25:59;;;;;;;0.10;0.10;;;;;;;19.97;70.66;100311.97;5051728;28;20215;-73
2022/06/23 07:28:46;;;;;;;0.33;0.33;;;;;;;20.02;69.30;100321.94;5050683;28;20177;-74
2022/06/23 07:31:20;;;;;;;0.00;0.00;;;;;;;20.22;67.57;100312.25;5051457;28;20235;-73
2022/06/23 07:33:55;;;;;;;0.20;0.20;;;;;;;20.27;67.36;100319.44;5051649;28;20174;-73
2022/06/23 07:36:28;;;;;;;0.07;0.07;;;;;;;20.48;66.68;100303.03;5051230;28;20631;-74
2022/06/23 07:39:19;;;;;;;0.00;0.00;;;;;;;20.59;67.62;100312.25;5050750;28;20199;-75
2022/06/23 07:41:53;;;;;;;0.00;0.00;;;;;;;20.63;66.37;100299.19;5051196;28;20188;-73
2022/06/23 07:44:26;;;;;;;0.00;0.00;;;;;;;20.76;67.02;100300.50;5051028;28;20217;-74
2022/06/23 07:46:52;;;;;;;0.00;0.00;;;;;;;20.79;65.16;100296.16;5050989;28;20197;-75
2022/06/23 07:49:17;;;;;;;0.50;0.50;;;;;;;20.93;64.94;100304.59;5050842;28;20181;-73
2022/06/23 07:51:43;;;;;;;0.00;0.00;;;;;;;20.91;64.20;100303.41;5050340;28;20265;-72
2022/06/23 07:54:18;;;;;;;0.50;0.50;;;;;;;21.03;62.90;100305.88;5051496;28;20189;-74
2022/06/23 07:56:44;;;;;;;0.00;0.00;;;;;;;21.02;62.70;100305.09;5051136;28;20628;-75
2022/06/23 07:59:23;;;;;;;0.00;0.00;;;;;;;21.18;62.68;100296.47;5050821;28;20206;-73
2022/06/23 08:02:22;;;;;;;0.00;0.00;;;;;;;21.25;62.47;100302.09;5051102;28;20174;-74
2022/06/23 08:04:54;;;;;;;0.10;0.10;;;;;;;21.44;63.28;100309.38;5043802;28;20244;-75
2022/06/23 08:07:20;;;;;;;0.00;0.00;;;;;;;21.47;61.14;100303.03;5050816;28;20318;-74
2022/06/23 08:09:50;;;;;;;0.00;0.00;;;;;;;21.70;61.58;100305.53;5050561;28;20715;-74
2022/06/23 08:18:17;;;;;;;0.00;0.00;;;;;;;22.04;60.37;100308.03;5049903;28;20264;-73
2022/06/23 08:20:50;;;;;;;0.00;0.00;;;;;;;22.14;60.46;100307.31;5050663;28;20201;-74
2022/06/23 08:23:18;;;;;;;0.00;0.00;;;;;;;22.17;59.54;100306.53;5050381;28;20203;-73
2022/06/23 08:25:44;;;;;;;0.00;0.00;;;;;;;22.30;61.24;100304.97;5050435;28;20172;-73
2022/06/23 08:28:10;;;;;;;0.00;0.00;;;;;;;22.34;59.83;100304.97;5050065;28;20413;-74
2022/06/23 08:30:39;;;;;;;0.20;0.20;;;;;;;22.42;59.18;100307.41;5050394;28;20583;-75
2022/06/23 08:33:05;;;;;;;0.00;0.00;;;;;;;22.50;60.02;100297.03;5050536;28;20183;-74
2022/06/23 08:35:49;;;;;;;0.30;0.30;;;;;;;22.65;58.65;100297.84;5050233;28;20510;-74
2022/06/23 08:38:24;;;;;;;0.00;0.00;;;;;;;22.74;58.88;100287.13;5049918;28;20175;-73
2022/06/23 08:41:14;;;;;;;0.00;0.00;;;;;;;22.79;58.65;100289.50;5050380;28;20185;-73
2022/06/23 08:43:54;;;;;;;0.00;0.00;;;;;;;23.00;57.87;100294.28;5049552;28;20276;-75
2022/06/23 08:46:31;;;;;;;0.17;0.17;;;;;;;23.19;58.28;100290.31;5049998;28;20167;-73
2022/06/23 08:49:20;;;;;;;0.23;0.23;;;;;;;23.24;57.71;100285.09;5049979;28;20186;-75
2022/06/23 08:51:56;;;;;;;2.07;0.37;;;;;;;23.28;54.46;100287.88;5050127;28;20172;-73
2022/06/23 08:54:34;;;;;;;0.00;0.00;;;;;;;23.40;55.41;100282.69;5050274;28;20186;-75
2022/06/23 08:57:14;;;;;;;0.10;0.00;;;;;;;23.58;55.64;100287.44;5050293;28;20183;-74
2022/06/23 09:00:05;;;;;;;0.90;0.90;;;;;;;23.29;55.18;100283.91;5049969;28;20183;-73
2022/06/23 09:02:35;;;;;;;0.53;0.53;;;;;;;23.37;55.19;100283.47;5052596;28;20254;-74
2022/06/23 09:05:29;;;;;;;0.00;0.00;;;;;;;23.40;55.87;100279.88;5054036;28;20171;-73
2022/06/23 09:08:26;;;;;;;0.17;0.17;;;;;;;23.74;54.40;100271.84;5053405;28;20201;-73
2022/06/23 09:10:59;;;;;;;0.00;0.00;;;;;;;23.90;54.90;100278.94;5021163;28;20191;-74
2022/06/23 09:13:48;;;;;;;0.47;0.40;;;;;;;23.99;52.68;100280.06;5053075;28;20171;-73
2022/06/23 09:16:36;;;;;;;0.30;0.30;;;;;;;24.18;52.50;100278.78;5054021;28;20233;-76
2022/06/23 09:19:24;;;;;;;0.00;0.00;;;;;;;24.40;53.18;100276.69;5054057;28;20249;-75
2022/06/23 09:22:10;;;;;;;0.00;0.00;;;;;;;24.45;52.95;100269.84;5053746;28;20187;-73
2022/06/23 09:24:35;;;;;;;0.20;0.20;;;;;;;24.36;50.88;100266.75;5053634;28;20203;-73
2022/06/23 09:27:15;;;;;;;0.00;0.00;;;;;;;24.64;51.49;100274.91;5053416;28;20249;-73
2022/06/23 09:30:09;;;;;;;0.00;0.00;;;;;;;24.69;51.46;100265.28;5053353;28;20560;-74
2022/06/23 09:32:53;;;;;;;0.03;0.03;;;;;;;24.90;49.28;100262.31;5053837;28;20232;-75
2022/06/23 09:35:31;;;;;;;0.00;0.00;;;;;;;24.87;50.55;100265.91;5053465;28;20229;-74
2022/06/23 09:38:28;;;;;;;0.00;0.00;;;;;;;25.08;50.60;100257.38;5052832;28;20653;-74
2022/06/23 09:41:02;;;;;;;0.00;0.00;;;;;;;25.28;48.69;100256.75;5053539;28;20220;-74
2022/06/23 09:44:04;;;;;;;0.00;0.00;;;;;;;25.30;47.89;100248.75;5053340;28;20252;-74
2022/06/23 09:46:56;;;;;;;0.00;0.00;;;;;;;25.47;49.32;100256.16;5053142;28;20250;-73
2022/06/23 09:49:33;;;;;;;1.33;0.70;;;;;;;25.54;48.48;100247.66;5053093;28;20188;-74
2022/06/23 09:52:13;;;;;;;0.00;0.00;;;;;;;25.79;43.79;100248.19;5053277;28;20179;-73
2022/06/23 09:54:58;;;;;;;1.13;0.40;;;;;;;25.55;47.11;100249.25;5053067;28;20171;-74
2022/06/23 09:57:44;;;;;;;0.20;0.20;;;;;;;25.75;48.37;100253.06;5052993;28;20177;-74
2022/06/23 10:00:19;;;;;;;0.00;0.00;;;;;;;26.07;46.60;100243.41;5053231;28;20225;-74
2022/06/23 10:02:58;;;;;;;0.00;0.00;;;;;;;26.14;46.39;100250.91;5053334;28;20538;-73
2022/06/23 10:05:44;;;;;;;0.10;0.10;;;;;;;26.20;46.78;100244.44;5053051;28;20182;-73
2022/06/23 10:08:12;;;;;;;1.53;0.53;;;;;;;25.87;46.57;100229.28;5052321;28;20546;-73
2022/06/23 10:10:52;;;;;;;0.10;0.10;;;;;;;25.91;45.04;100234.84;5052900;28;20179;-74
2022/06/23 10:13:48;;;;;;;0.10;0.10;;;;;;;26.04;43.89;100231.06;5050456;28;20180;-73
2022/06/23 10:16:46;;;;;;;0.00;0.00;;;;;;;26.14;43.18;100229.28;5052908;28;20175;-75
2022/06/23 10:19:24;;;;;;;0.00;0.00;;;;;;;26.54;42.49;100238.72;5052249;28;20517;-74
2022/06/23 10:22:27;;;;;;;0.30;0.30;;;;;;;26.86;40.31;100237.34;5052807;28;20635;-74
2022/06/23 10:25:04;;;;;;;0.17;0.17;;;;;;;26.72;41.85;100234.81;5052531;28;20204;-74
2022/06/23 10:27:49;;;;;;;0.17;0.10;;;;;;;26.69;43.94;100231.63;5052249;28;20228;-75
2022/06/23 10:30:36;;;;;;;0.43;0.43;;;;;;;26.52;43.04;100232.75;5052613;28;20174;-74
2022/06/23 10:33:32;;;;;;;0.00;0.00;;;;;;;26.69;44.41;100231.63;5052535;28;20183;-74
2022/06/23 10:36:16;;;;;;;0.70;0.37;;;;;;;26.41;43.87;100214.50;5052260;28;20300;-73
2022/06/23 10:38:48;;;;;;;0.37;0.37;;;;;;;26.56;43.45;100216.66;5051777;28;20260;-73
2022/06/23 10:41:19;;;;;;;0.00;0.00;;;;;;;26.34;44.79;100209.78;5052517;28;20175;-75
2022/06/23 10:43:57;;;;;;;0.30;0.30;;;;;;;26.73;44.44;100213.97;5052249;28;20229;-74
2022/06/23 10:46:36;;;;;;;0.00;0.00;;;;;;;26.90;39.87;100202.41;5052085;28;20179;-73
2022/06/23 10:49:01;;;;;;;0.20;0.20;;;;;;;27.21;41.63;100197.47;5051925;28;20183;-73
2022/06/23 10:51:57;;;;;;;0.00;0.00;;;;;;;27.47;43.13;100218.16;5052401;28;20170;-73
2022/06/23 10:54:38;;;;;;;0.00;0.00;;;;;;;27.25;43.15;100206.59;5052065;28;20183;-73
2022/06/23 10:57:28;;;;;;;0.67;0.50;;;;;;;26.94;42.38;100202.38;5051909;28;20180;-75
2022/06/23 11:00:07;;;;;;;0.10;0.10;;;;;;;26.71;41.44;100191.97;5051823;28;20182;-74
2022/06/23 11:03:10;;;;;;;0.00;0.00;;;;;;;27.31;40.15;100206.09;5051890;28;20185;-74
2022/06/23 11:05:54;;;;;;;0.00;0.00;;;;;;;27.35;39.26;100193.59;5051867;28;20172;-73
2022/06/23 11:08:22;;;;;;;0.00;0.00;;;;;;;27.52;39.82;100205.66;5051165;28;20667;-74
2022/06/23 11:11:18;;;;;;;0.30;0.30;;;;;;;27.53;39.79;100202.41;5051865;28;20669;-74
2022/06/23 11:13:52;;;;;;;0.63;0.43;;;;;;;27.30;41.48;100193.28;5050093;28;20181;-74
2022/06/23 11:16:45;;;;;;;0.00;0.00;;;;;;;27.30;40.20;100185.66;5051672;28;20178;-74
2022/06/23 11:19:19;;;;;;;0.30;0.30;;;;;;;27.64;42.57;100182.59;5051173;28;20671;-74
2022/06/23 11:22:10;;;;;;;0.00;0.00;;;;;;;27.93;40.23;100176.31;5051665;28;20705;-73
2022/06/23 11:24:53;;;;;;;0.10;0.10;;;;;;;28.23;38.37;100180.81;5050771;28;20259;-73
2022/06/23 11:27:30;;;;;;;0.00;0.00;;;;;;;28.45;36.84;100170.66;5051128;28;20642;-75
2022/06/23 11:30:17;;;;;;;0.67;0.67;;;;;;;28.21;36.91;100167.22;5051029;28;20232;-74
2022/06/23 11:32:45;;;;;;;0.00;0.00;;;;;;;28.04;36.27;100160.78;5051502;28;20173;-74
2022/06/23 11:35:28;;;;;;;0.40;0.40;;;;;;;28.47;38.83;100154.13;5051174;28;20669;-74
2022/06/23 11:38:12;;;;;;;0.00;0.00;;;;;;;28.63;37.09;100150.50;5050543;28;20572;-74
2022/06/23 11:41:01;;;;;;;0.00;0.00;;;;;;;28.57;35.72;100155.09;5051375;28;20263;-74
2022/06/23 11:43:46;;;;;;;0.57;0.30;;;;;;;28.75;36.25;100147.75;5051369;28;20287;-74
2022/06/23 11:46:26;;;;;;;0.20;0.20;;;;;;;29.03;35.54;100142.59;5051022;28;20253;-74
2022/06/23 11:49:36;;;;;;;0.00;0.00;;;;;;;29.20;34.63;100140.50;5032622;28;20648;-73
2022/06/23 11:52:37;;;;;;;0.00;0.00;;;;;;;28.85;34.88;100142.28;4979349;28;20736;-74
2022/06/23 11:55:14;;;;;;;0.00;0.00;;;;;;;28.75;35.95;100127.28;5051231;28;20261;-74
2022/06/23 11:58:13;;;;;;;0.30;0.30;;;;;;;29.07;37.84;100131.22;5050340;28;20632;-74
2022/06/23 12:01:05;;;;;;;0.00;0.00;;;;;;;29.31;36.94;100127.69;5051023;28;20212;-74
2022/06/23 12:03:33;;;;;;;0.53;0.53;;;;;;;29.08;36.89;100124.38;5050869;28;20236;-74
2022/06/23 12:06:24;;;;;;;0.10;0.10;;;;;;;29.53;36.39;100125.06;5050684;28;20172;-74
2022/06/23 12:09:06;;;;;;;0.43;0.43;;;;;;;29.75;37.00;100121.56;5050045;28;20638;-74
2022/06/23 12:11:33;;;;;;;0.00;0.00;;;;;;;29.79;38.47;100122.25;5050477;28;20270;-74
2022/06/23 12:14:01;;;;;;;0.10;0.10;;;;;;;30.00;35.82;100118.75;5049178;28;20654;-75
2022/06/23 12:16:26;;;;;;;0.00;0.00;;;;;;;29.58;34.57;100110.41;5050435;28;20171;-74
2022/06/23 12:19:05;;;;;;;0.10;0.10;;;;;;;29.11;38.20;100106.63;5050082;28;20221;-75
2022/06/23 12:21:50;;;;;;;1.43;0.83;;;;;;;28.54;39.53;100094.91;5050402;28;20171;-73
2022/06/23 12:24:33;;;;;;;0.00;0.00;;;;;;;28.60;38.72;100086.72;5050367;28;20305;-74
2022/06/23 12:27:07;;;;;;;0.00;0.00;;;;;;;28.78;40.50;100089.03;5050166;28;20239;-74